Time;durP1;ratioP1;P1;durP2;ratioP2;P2;SDS_P1;SDS_P2;PMS_P1;PMS_P2;Temp;Humidity;BMP_temperature;BMP_pressure;BME280_temperature;BME280_humidity;BME280_pressure;Samples;Min_cycle;Max_cycle;Signal;HPM_P1;HPM_P2
2021/11/01 18:41:13;;;;;;;56.60;37.58;;;;;;;13.96;58.75;99034.78;5064196;27;97447;-83
2021/11/01 18:52:18;;;;;;;34.78;26.35;;;;;;;14.10;58.88;99036.44;5068597;27;97889;-83
2021/11/01 18:54:50;;;;;;;35.70;25.60;;;;;;;14.05;58.93;99041.22;5054713;27;101787;-82
2021/11/01 18:57:19;;;;;;;34.38;24.88;;;;;;;14.20;58.67;99041.94;5060886;27;101175;-82
2021/11/01 18:59:45;;;;;;;37.67;26.73;;;;;;;14.17;58.88;99045.66;5044411;27;97658;-82
2021/11/01 19:08:24;;;;;;;33.50;25.60;;;;;;;14.16;58.89;99040.44;5008698;27;101294;-83
2021/11/01 19:12:01;;;;;;;40.40;26.98;;;;;;;14.21;59.06;99041.81;5051869;27;97250;-83
2021/11/01 19:14:26;;;;;;;34.97;25.35;;;;;;;14.19;58.95;99032.31;5080910;27;96924;-82
2021/11/01 20:04:18;;;;;;;38.28;27.92;;;;;;;13.84;60.36;99011.84;5068606;27;97713;-80
2021/11/01 21:26:51;;;;;;;37.55;26.80;;;;;;;13.67;60.93;98970.81;5067442;27;97498;-81
2021/11/01 21:29:17;;;;;;;34.13;26.10;;;;;;;13.58;61.05;98966.16;5050189;27;101536;-84
2021/11/01 21:31:42;;;;;;;35.53;28.05;;;;;;;13.61;61.06;98967.72;5069197;27;97634;-82
2021/11/01 21:34:13;;;;;;;33.67;27.38;;;;;;;13.74;61.22;98977.34;5040741;27;98255;-80
2021/11/01 21:36:39;;;;;;;33.80;26.87;;;;;;;13.68;60.80;98961.94;5057081;27;96820;-82
2021/11/01 21:39:07;;;;;;;36.78;27.27;;;;;;;13.78;61.24;98983.25;5071280;27;101675;-81
2021/11/01 21:41:33;;;;;;;38.58;28.25;;;;;;;13.73;60.66;98977.44;5050654;27;101102;-81
2021/11/01 21:43:59;;;;;;;41.53;30.08;;;;;;;13.74;60.88;98980.00;5034214;27;98346;-81
2021/11/01 21:46:24;;;;;;;44.95;31.70;;;;;;;13.80;60.78;98984.00;5073620;27;97797;-81
2021/11/01 21:48:51;;;;;;;43.72;30.85;;;;;;;13.87;60.62;98974.72;5044983;27;98635;-82
2021/11/01 21:51:17;;;;;;;42.33;31.02;;;;;;;13.93;60.35;98976.06;5031715;27;101301;-82
2021/11/01 21:53:49;;;;;;;39.45;30.88;;;;;;;13.90;60.87;98989.47;5063249;27;98104;-81
2021/11/01 21:56:16;;;;;;;35.72;29.52;;;;;;;13.76;61.19;98964.06;5053359;27;97964;-81
2021/11/01 22:20:07;;;;;;;43.75;31.63;;;;;;;13.70;60.77;98989.06;5066769;27;98613;-83
2021/11/01 22:22:40;;;;;;;39.35;30.98;;;;;;;13.74;61.00;98992.34;5051614;27;102553;-81
2021/11/01 22:25:12;;;;;;;37.28;29.35;;;;;;;13.70;60.64;98989.06;5046566;27;97191;-82
2021/11/01 22:33:08;;;;;;;40.83;31.63;;;;;;;13.55;61.34;98964.56;5070306;27;97795;-81
2021/11/01 22:38:31;;;;;;;36.22;28.30;;;;;;;13.52;61.74;98964.78;5052479;27;96998;-81
2021/11/01 22:55:31;;;;;;;43.35;31.52;;;;;;;13.37;62.03;98939.44;5044250;27;96857;-81
2021/11/01 22:57:07;;;;;;;41.08;29.98;;;;;;;13.51;61.35;98946.44;5054722;27;97863;-83
2021/11/01 22:59:33;;;;;;;38.33;30.83;;;;;;;13.45;62.03;98952.13;5055377;27;97346;-83
2021/11/01 23:01:59;;;;;;;42.13;31.90;;;;;;;13.45;62.06;98941.59;5054131;27;101410;-81
2021/11/01 23:31:27;;;;;;;34.35;27.23;;;;;;;13.38;62.16;98906.91;5062610;27;96916;-81
2021/11/01 23:32:02;;;;;;;34.90;25.90;;;;;;;13.37;62.67;98905.19;5048825;27;96950;-81
2021/11/01 23:34:28;;;;;;;33.00;26.60;;;;;;;13.25;63.01;98898.09;5038505;27;101604;-84
2021/11/01 23:36:56;;;;;;;33.55;27.42;;;;;;;13.38;62.88;98913.94;5039141;27;101361;-82
2021/11/01 23:39:22;;;;;;;29.35;25.50;;;;;;;13.26;62.75;98887.47;5072564;27;97816;-82
2021/11/01 23:41:48;;;;;;;31.55;26.25;;;;;;;13.41;62.26;98900.53;5055699;27;97712;-84
2021/11/01 23:44:18;;;;;;;35.28;28.23;;;;;;;13.36;62.75;98896.44;5037419;27;101390;-82
2021/11/01 23:46:45;;;;;;;32.00;26.92;;;;;;;13.41;62.56;98898.78;5040420;27;100144;-81
2021/11/01 23:49:11;;;;;;;29.98;26.25;;;;;;;13.27;63.24;98881.25;5052982;27;96908;-81
2021/11/01 23:51:37;;;;;;;32.78;27.60;;;;;;;13.38;62.34;98896.34;5039493;27;96779;-81
2021/11/01 23:56:47;;;;;;;33.75;27.50;;;;;;;13.31;62.83;98901.19;5071419;27;97968;-81
2021/11/01 23:59:13;;;;;;;38.88;28.10;;;;;;;13.34;62.96;98894.84;5035927;27;97002;-81
